sensor_id;sensor_type;location;lat;lon;timestamp;pressure;altitude;pressure_sealevel;temperature;humidity
41654;BME280;68687;52.030;7.110;2023-06-04T00:00:38;101463.94;;;11.73;60.54
41654;BME280;68687;52.030;7.110;2023-06-04T00:03:03;101456.91;;;11.72;60.99
41654;BME280;68687;52.030;7.110;2023-06-04T00:05:28;101463.13;;;11.72;61.57
41654;BME280;68687;52.030;7.110;2023-06-04T00:07:54;101458.06;;;11.69;61.70
41654;BME280;68687;52.030;7.110;2023-06-04T00:10:19;101464.50;;;11.60;61.10
41654;BME280;68687;52.030;7.110;2023-06-04T00:12:44;101453.38;;;11.63;60.83
41654;BME280;68687;52.030;7.110;2023-06-04T00:15:10;101455.25;;;11.55;61.01
41654;BME280;68687;52.030;7.110;2023-06-04T00:17:35;101453.56;;;11.54;61.63
41654;BME280;68687;52.030;7.110;2023-06-04T00:20:01;101452.91;;;11.35;61.95
41654;BME280;68687;52.030;7.110;2023-06-04T00:22:26;101450.88;;;11.45;62.19
41654;BME280;68687;52.030;7.110;2023-06-04T00:24:51;101447.03;;;11.40;63.05
41654;BME280;68687;52.030;7.110;2023-06-04T00:27:16;101451.56;;;11.39;61.71
41654;BME280;68687;52.030;7.110;2023-06-04T00:29:42;101452.91;;;11.35;62.56
41654;BME280;68687;52.030;7.110;2023-06-04T00:32:07;101448.03;;;11.31;61.61
41654;BME280;68687;52.030;7.110;2023-06-04T00:34:33;101442.66;;;11.31;62.51
41654;BME280;68687;52.030;7.110;2023-06-04T00:36:58;101443.84;;;11.28;60.41
41654;BME280;68687;52.030;7.110;2023-06-04T00:39:23;101452.41;;;11.24;61.22
41654;BME280;68687;52.030;7.110;2023-06-04T00:41:48;101446.69;;;11.19;61.79
41654;BME280;68687;52.030;7.110;2023-06-04T00:44:14;101443.34;;;11.25;61.04
41654;BME280;68687;52.030;7.110;2023-06-04T00:46:39;101439.78;;;11.16;62.01
41654;BME280;68687;52.030;7.110;2023-06-04T00:49:05;101433.25;;;11.19;61.93
41654;BME280;68687;52.030;7.110;2023-06-04T00:51:32;101442.16;;;11.11;63.50
41654;BME280;68687;52.030;7.110;2023-06-04T00:53:58;101437.44;;;11.05;63.65
41654;BME280;68687;52.030;7.110;2023-06-04T00:56:24;101437.13;;;11.00;64.25
41654;BME280;68687;52.030;7.110;2023-06-04T00:58:49;101440.44;;;10.94;64.31
41654;BME280;68687;52.030;7.110;2023-06-04T01:02:08;101439.94;;;10.90;64.29
41654;BME280;68687;52.030;7.110;2023-06-04T01:04:21;101438.59;;;10.86;64.50
41654;BME280;68687;52.030;7.110;2023-06-04T01:06:50;101435.56;;;10.89;63.75
41654;BME280;68687;52.030;7.110;2023-06-04T01:09:16;101435.75;;;10.88;62.95
41654;BME280;68687;52.030;7.110;2023-06-04T01:11:41;101438.41;;;10.79;65.07
41654;BME280;68687;52.030;7.110;2023-06-04T01:14:09;101435.06;;;10.77;64.63
41654;BME280;68687;52.030;7.110;2023-06-04T01:19:36;101443.25;;;10.68;65.06
41654;BME280;68687;52.030;7.110;2023-06-04T01:22:02;101442.09;;;10.70;65.46
41654;BME280;68687;52.030;7.110;2023-06-04T01:24:28;101448.94;;;10.65;65.39
41654;BME280;68687;52.030;7.110;2023-06-04T01:26:57;101445.75;;;10.61;65.55
41654;BME280;68687;52.030;7.110;2023-06-04T01:29:23;101445.41;;;10.56;65.93
41654;BME280;68687;52.030;7.110;2023-06-04T01:31:51;101434.84;;;10.63;64.76
41654;BME280;68687;52.030;7.110;2023-06-04T01:34:17;101439.38;;;10.62;65.76
41654;BME280;68687;52.030;7.110;2023-06-04T01:36:42;101436.03;;;10.60;64.62
41654;BME280;68687;52.030;7.110;2023-06-04T01:39:07;101431.31;;;10.54;65.45
41654;BME280;68687;52.030;7.110;2023-06-04T01:41:33;101430.47;;;10.45;66.48
41654;BME280;68687;52.030;7.110;2023-06-04T01:43:58;101436.00;;;10.44;65.46
41654;BME280;68687;52.030;7.110;2023-06-04T01:46:24;101438.28;;;10.31;66.44
41654;BME280;68687;52.030;7.110;2023-06-04T01:48:49;101434.91;;;10.29;66.76
41654;BME280;68687;52.030;7.110;2023-06-04T01:51:14;101429.03;;;10.25;67.52
41654;BME280;68687;52.030;7.110;2023-06-04T01:53:39;101438.09;;;10.24;66.20
41654;BME280;68687;52.030;7.110;2023-06-04T01:56:05;101435.56;;;10.23;67.33
41654;BME280;68687;52.030;7.110;2023-06-04T01:58:32;101432.66;;;10.16;67.03
41654;BME280;68687;52.030;7.110;2023-06-04T02:00:58;101440.94;;;10.23;66.90
41654;BME280;68687;52.030;7.110;2023-06-04T02:03:25;101436.81;;;10.10;67.04
41654;BME280;68687;52.030;7.110;2023-06-04T02:05:51;101438.13;;;10.06;66.80
41654;BME280;68687;52.030;7.110;2023-06-04T02:08:16;101441.34;;;10.10;67.33
41654;BME280;68687;52.030;7.110;2023-06-04T02:10:46;101447.50;;;10.02;67.59
41654;BME280;68687;52.030;7.110;2023-06-04T02:13:12;101438.28;;;9.97;66.86
41654;BME280;68687;52.030;7.110;2023-06-04T02:15:37;101436.63;;;10.04;67.06
41654;BME280;68687;52.030;7.110;2023-06-04T02:18:16;101439.13;;;10.05;66.66
41654;BME280;68687;52.030;7.110;2023-06-04T02:20:46;101438.94;;;9.99;66.88
41654;BME280;68687;52.030;7.110;2023-06-04T02:23:12;101431.88;;;9.89;67.05
41654;BME280;68687;52.030;7.110;2023-06-04T02:25:38;101432.97;;;9.79;67.70
41654;BME280;68687;52.030;7.110;2023-06-04T02:28:03;101439.13;;;9.71;67.94
41654;BME280;68687;52.030;7.110;2023-06-04T02:30:28;101438.97;;;9.73;67.99
41654;BME280;68687;52.030;7.110;2023-06-04T02:32:54;101432.91;;;9.71;68.52
41654;BME280;68687;52.030;7.110;2023-06-04T02:35:20;101443.13;;;9.67;69.24
41654;BME280;68687;52.030;7.110;2023-06-04T02:37:48;101444.75;;;9.60;69.57
41654;BME280;68687;52.030;7.110;2023-06-04T02:40:13;101445.59;;;9.60;68.80
41654;BME280;68687;52.030;7.110;2023-06-04T02:42:39;101438.25;;;9.63;68.24
41654;BME280;68687;52.030;7.110;2023-06-04T02:45:04;101443.59;;;9.63;67.72
41654;BME280;68687;52.030;7.110;2023-06-04T02:47:30;101440.84;;;9.54;69.24
41654;BME280;68687;52.030;7.110;2023-06-04T02:49:55;101439.84;;;9.55;68.90
41654;BME280;68687;52.030;7.110;2023-06-04T02:52:20;101431.75;;;9.47;69.24
41654;BME280;68687;52.030;7.110;2023-06-04T02:54:50;101430.22;;;9.45;69.05
41654;BME280;68687;52.030;7.110;2023-06-04T02:57:15;101433.59;;;9.47;69.33
41654;BME280;68687;52.030;7.110;2023-06-04T02:59:41;101431.91;;;9.46;69.56
41654;BME280;68687;52.030;7.110;2023-06-04T03:02:06;101435.59;;;9.45;69.89
41654;BME280;68687;52.030;7.110;2023-06-04T03:04:31;101435.06;;;9.41;70.40
41654;BME280;68687;52.030;7.110;2023-06-04T03:07:02;101435.75;;;9.43;69.82
41654;BME280;68687;52.030;7.110;2023-06-04T03:09:30;101433.38;;;9.40;69.42
41654;BME280;68687;52.030;7.110;2023-06-04T03:11:59;101449.47;;;9.40;69.33
41654;BME280;68687;52.030;7.110;2023-06-04T03:14:24;101439.38;;;9.34;69.99
41654;BME280;68687;52.030;7.110;2023-06-04T03:16:58;101442.50;;;9.29;70.58
41654;BME280;68687;52.030;7.110;2023-06-04T03:19:26;101443.81;;;9.25;71.39
41654;BME280;68687;52.030;7.110;2023-06-04T03:21:51;101436.94;;;9.23;70.94
41654;BME280;68687;52.030;7.110;2023-06-04T03:24:17;101442.28;;;9.23;70.94
41654;BME280;68687;52.030;7.110;2023-06-04T03:26:42;101442.28;;;9.23;70.83
41654;BME280;68687;52.030;7.110;2023-06-04T03:29:08;101436.72;;;9.16;71.63
41654;BME280;68687;52.030;7.110;2023-06-04T03:31:33;101436.88;;;9.15;72.01
41654;BME280;68687;52.030;7.110;2023-06-04T03:33:58;101431.28;;;9.08;71.99
41654;BME280;68687;52.030;7.110;2023-06-04T03:36:23;101440.38;;;9.15;72.47
41654;BME280;68687;52.030;7.110;2023-06-04T03:38:57;101437.03;;;9.13;72.05
41654;BME280;68687;52.030;7.110;2023-06-04T03:41:22;101436.03;;;9.14;71.24
41654;BME280;68687;52.030;7.110;2023-06-04T03:43:47;101434.19;;;9.15;71.72
41654;BME280;68687;52.030;7.110;2023-06-04T03:46:13;101438.22;;;9.19;71.56
41654;BME280;68687;52.030;7.110;2023-06-04T03:48:38;101437.72;;;9.15;71.87
41654;BME280;68687;52.030;7.110;2023-06-04T03:51:03;101444.91;;;9.15;72.41
41654;BME280;68687;52.030;7.110;2023-06-04T03:53:29;101442.22;;;9.15;71.74
41654;BME280;68687;52.030;7.110;2023-06-04T03:55:54;101448.50;;;9.06;73.32
41654;BME280;68687;52.030;7.110;2023-06-04T03:58:20;101444.91;;;9.15;72.80
41654;BME280;68687;52.030;7.110;2023-06-04T04:00:46;101447.22;;;9.10;73.27
41654;BME280;68687;52.030;7.110;2023-06-04T04:03:11;101444.91;;;9.15;73.24
41654;BME280;68687;52.030;7.110;2023-06-04T04:05:36;101442.06;;;9.16;73.28
41654;BME280;68687;52.030;7.110;2023-06-04T04:08:03;101437.50;;;9.09;73.40
41654;BME280;68687;52.030;7.110;2023-06-04T04:10:28;101443.53;;;9.11;73.68
41654;BME280;68687;52.030;7.110;2023-06-04T04:12:53;101441.69;;;9.11;73.63
41654;BME280;68687;52.030;7.110;2023-06-04T04:15:20;101444.22;;;9.13;73.62
41654;BME280;68687;52.030;7.110;2023-06-04T04:17:45;101447.28;;;9.18;73.60
41654;BME280;68687;52.030;7.110;2023-06-04T04:20:11;101443.13;;;9.23;74.18
41654;BME280;68687;52.030;7.110;2023-06-04T04:22:40;101441.38;;;9.32;73.37
41654;BME280;68687;52.030;7.110;2023-06-04T04:25:06;101441.38;;;9.32;74.29
41654;BME280;68687;52.030;7.110;2023-06-04T04:27:32;101444.09;;;9.40;73.59
41654;BME280;68687;52.030;7.110;2023-06-04T04:30:00;101439.13;;;9.45;73.93
41654;BME280;68687;52.030;7.110;2023-06-04T04:32:25;101452.88;;;9.50;73.84
41654;BME280;68687;52.030;7.110;2023-06-04T04:34:53;101443.38;;;9.56;73.60
41654;BME280;68687;52.030;7.110;2023-06-04T04:37:18;101448.66;;;9.66;73.36
41654;BME280;68687;52.030;7.110;2023-06-04T04:39:46;101449.84;;;9.71;72.87
41654;BME280;68687;52.030;7.110;2023-06-04T04:42:12;101449.06;;;9.79;72.76
41654;BME280;68687;52.030;7.110;2023-06-04T04:44:37;101444.03;;;9.84;72.89
41654;BME280;68687;52.030;7.110;2023-06-04T04:47:02;101445.31;;;9.98;72.24
41654;BME280;68687;52.030;7.110;2023-06-04T04:49:28;101446.84;;;10.00;72.93
41654;BME280;68687;52.030;7.110;2023-06-04T04:51:53;101445.53;;;10.12;72.36
41654;BME280;68687;52.030;7.110;2023-06-04T04:54:18;101448.66;;;10.26;72.29
41654;BME280;68687;52.030;7.110;2023-06-04T04:56:43;101450.88;;;10.38;71.58
41654;BME280;68687;52.030;7.110;2023-06-04T04:59:09;101448.56;;;10.43;71.85
41654;BME280;68687;52.030;7.110;2023-06-04T05:01:34;101446.47;;;10.79;70.62
41654;BME280;68687;52.030;7.110;2023-06-04T05:03:59;101447.19;;;10.98;70.81
41654;BME280;68687;52.030;7.110;2023-06-04T05:06:25;101441.16;;;11.04;70.88
41654;BME280;68687;52.030;7.110;2023-06-04T05:08:50;101449.38;;;11.59;68.75
41654;BME280;68687;52.030;7.110;2023-06-04T05:11:15;101449.84;;;11.63;68.70
41654;BME280;68687;52.030;7.110;2023-06-04T05:13:40;101455.25;;;11.46;69.43
41654;BME280;68687;52.030;7.110;2023-06-04T05:16:07;101456.22;;;11.94;67.27
41654;BME280;68687;52.030;7.110;2023-06-04T05:18:33;101458.22;;;11.92;67.31
41654;BME280;68687;52.030;7.110;2023-06-04T05:20:59;101461.25;;;12.05;66.60
41654;BME280;68687;52.030;7.110;2023-06-04T05:23:29;101454.59;;;12.24;65.99
41654;BME280;68687;52.030;7.110;2023-06-04T05:25:59;101457.31;;;12.55;64.58
41654;BME280;68687;52.030;7.110;2023-06-04T05:28:24;101463.19;;;12.59;65.09
41654;BME280;68687;52.030;7.110;2023-06-04T05:30:51;101460.50;;;12.59;64.47
41654;BME280;68687;52.030;7.110;2023-06-04T05:33:17;101457.56;;;12.99;63.49
41654;BME280;68687;52.030;7.110;2023-06-04T05:35:45;101462.56;;;12.80;64.68
41654;BME280;68687;52.030;7.110;2023-06-04T05:38:10;101453.16;;;13.29;63.37
41654;BME280;68687;52.030;7.110;2023-06-04T05:40:40;101459.84;;;13.34;62.25
41654;BME280;68687;52.030;7.110;2023-06-04T05:43:05;101455.38;;;13.64;61.41
41654;BME280;68687;52.030;7.110;2023-06-04T05:45:32;101446.78;;;13.45;61.81
41654;BME280;68687;52.030;7.110;2023-06-04T05:47:57;101442.09;;;13.77;60.65
41654;BME280;68687;52.030;7.110;2023-06-04T05:50:23;101450.63;;;13.51;61.28
41654;BME280;68687;52.030;7.110;2023-06-04T05:52:48;101455.19;;;13.65;60.57
41654;BME280;68687;52.030;7.110;2023-06-04T05:55:13;101446.84;;;13.89;60.59
41654;BME280;68687;52.030;7.110;2023-06-04T05:57:39;101443.88;;;14.29;59.28
41654;BME280;68687;52.030;7.110;2023-06-04T06:00:05;101460.16;;;14.35;59.88
41654;BME280;68687;52.030;7.110;2023-06-04T06:02:36;101463.34;;;14.53;58.08
41654;BME280;68687;52.030;7.110;2023-06-04T06:05:04;101454.78;;;14.06;59.38
41654;BME280;68687;52.030;7.110;2023-06-04T06:07:30;101445.19;;;14.83;58.23
41654;BME280;68687;52.030;7.110;2023-06-04T06:09:56;101451.66;;;14.38;58.46
41654;BME280;68687;52.030;7.110;2023-06-04T06:12:21;101457.34;;;15.15;57.65
41654;BME280;68687;52.030;7.110;2023-06-04T06:14:46;101449.31;;;14.65;57.81
41654;BME280;68687;52.030;7.110;2023-06-04T06:17:11;101455.94;;;15.62;55.21
41654;BME280;68687;52.030;7.110;2023-06-04T06:19:37;101449.50;;;15.63;56.13
41654;BME280;68687;52.030;7.110;2023-06-04T06:22:03;101459.03;;;15.38;55.32
41654;BME280;68687;52.030;7.110;2023-06-04T06:24:29;101440.19;;;15.72;54.72
41654;BME280;68687;52.030;7.110;2023-06-04T06:26:54;101448.06;;;16.02;54.33
41654;BME280;68687;52.030;7.110;2023-06-04T06:29:19;101453.22;;;16.31;53.74
41654;BME280;68687;52.030;7.110;2023-06-04T06:31:45;101466.53;;;16.20;53.54
41654;BME280;68687;52.030;7.110;2023-06-04T06:34:11;101468.69;;;16.03;52.84
41654;BME280;68687;52.030;7.110;2023-06-04T06:36:36;101464.38;;;16.15;53.30
41654;BME280;68687;52.030;7.110;2023-06-04T06:39:01;101470.72;;;16.70;53.10
41654;BME280;68687;52.030;7.110;2023-06-04T06:41:26;101467.28;;;17.03;50.99
41654;BME280;68687;52.030;7.110;2023-06-04T06:43:52;101469.31;;;16.87;51.74
41654;BME280;68687;52.030;7.110;2023-06-04T06:46:17;101467.63;;;16.73;51.11
41654;BME280;68687;52.030;7.110;2023-06-04T06:48:42;101473.56;;;17.10;49.75
41654;BME280;68687;52.030;7.110;2023-06-04T06:51:10;101467.31;;;17.36;50.22
41654;BME280;68687;52.030;7.110;2023-06-04T06:53:35;101473.81;;;17.61;50.03
41654;BME280;68687;52.030;7.110;2023-06-04T06:56:01;101476.47;;;18.20;48.78
41654;BME280;68687;52.030;7.110;2023-06-04T06:58:26;101476.53;;;17.94;50.62
41654;BME280;68687;52.030;7.110;2023-06-04T07:00:51;101483.09;;;18.31;48.88
41654;BME280;68687;52.030;7.110;2023-06-04T07:03:17;101475.91;;;18.70;46.83
41654;BME280;68687;52.030;7.110;2023-06-04T07:05:42;101479.94;;;18.47;46.88
41654;BME280;68687;52.030;7.110;2023-06-04T07:08:07;101486.16;;;19.06;45.46
41654;BME280;68687;52.030;7.110;2023-06-04T07:10:32;101482.31;;;18.17;45.81
41654;BME280;68687;52.030;7.110;2023-06-04T07:12:58;101482.41;;;18.69;45.93
41654;BME280;68687;52.030;7.110;2023-06-04T07:15:23;101482.19;;;18.70;46.39
41654;BME280;68687;52.030;7.110;2023-06-04T07:17:48;101478.75;;;19.20;46.88
41654;BME280;68687;52.030;7.110;2023-06-04T07:20:14;101486.44;;;19.61;43.99
41654;BME280;68687;52.030;7.110;2023-06-04T07:22:39;101477.25;;;19.80;44.13
41654;BME280;68687;52.030;7.110;2023-06-04T07:25:05;101488.59;;;19.77;43.65
41654;BME280;68687;52.030;7.110;2023-06-04T07:27:30;101487.09;;;19.56;44.98
41654;BME280;68687;52.030;7.110;2023-06-04T07:29:56;101494.25;;;20.00;43.55
41654;BME280;68687;52.030;7.110;2023-06-04T07:32:21;101499.44;;;20.45;43.86
41654;BME280;68687;52.030;7.110;2023-06-04T07:34:46;101491.00;;;20.10;42.76
41654;BME280;68687;52.030;7.110;2023-06-04T07:37:11;101490.84;;;20.78;42.14
41654;BME280;68687;52.030;7.110;2023-06-04T07:39:38;101487.47;;;20.83;41.34
41654;BME280;68687;52.030;7.110;2023-06-04T07:42:04;101485.19;;;21.10;41.94
41654;BME280;68687;52.030;7.110;2023-06-04T07:44:30;101481.94;;;20.71;41.27
41654;BME280;68687;52.030;7.110;2023-06-04T07:46:55;101483.19;;;21.17;40.29
41654;BME280;68687;52.030;7.110;2023-06-04T07:49:21;101478.66;;;21.11;41.05
41654;BME280;68687;52.030;7.110;2023-06-04T07:51:46;101480.31;;;21.12;41.13
41654;BME280;68687;52.030;7.110;2023-06-04T07:54:12;101489.34;;;21.42;39.79
41654;BME280;68687;52.030;7.110;2023-06-04T07:56:39;101483.69;;;21.67;39.44
41654;BME280;68687;52.030;7.110;2023-06-04T07:59:04;101486.19;;;21.69;37.66
41654;BME280;68687;52.030;7.110;2023-06-04T08:01:29;101493.44;;;20.73;39.38
41654;BME280;68687;52.030;7.110;2023-06-04T08:03:55;101499.69;;;21.52;38.34
41654;BME280;68687;52.030;7.110;2023-06-04T08:06:21;101492.38;;;21.99;37.92
41654;BME280;68687;52.030;7.110;2023-06-04T08:08:46;101492.09;;;21.54;38.01
41654;BME280;68687;52.030;7.110;2023-06-04T08:11:14;101499.38;;;22.30;37.88
41654;BME280;68687;52.030;7.110;2023-06-04T08:13:39;101490.44;;;21.76;37.06
41654;BME280;68687;52.030;7.110;2023-06-04T08:16:05;101494.84;;;22.47;36.13
41654;BME280;68687;52.030;7.110;2023-06-04T08:18:30;101494.88;;;22.24;35.62
41654;BME280;68687;52.030;7.110;2023-06-04T08:20:56;101499.59;;;21.70;35.56
41654;BME280;68687;52.030;7.110;2023-06-04T08:23:21;101496.28;;;22.27;36.91
41654;BME280;68687;52.030;7.110;2023-06-04T08:25:46;101486.34;;;22.61;35.79
41654;BME280;68687;52.030;7.110;2023-06-04T08:28:14;101489.22;;;22.42;35.33
41654;BME280;68687;52.030;7.110;2023-06-04T08:30:42;101487.72;;;22.87;34.99
41654;BME280;68687;52.030;7.110;2023-06-04T08:33:07;101490.75;;;23.02;33.84
41654;BME280;68687;52.030;7.110;2023-06-04T08:36:19;101495.25;;;22.68;30.53
41654;BME280;68687;52.030;7.110;2023-06-04T08:38:45;101499.25;;;22.48;31.35
41654;BME280;68687;52.030;7.110;2023-06-04T08:41:15;101494.44;;;22.56;31.45
41654;BME280;68687;52.030;7.110;2023-06-04T08:43:41;101501.88;;;22.08;31.42
41654;BME280;68687;52.030;7.110;2023-06-04T08:46:09;101511.31;;;21.59;33.63
41654;BME280;68687;52.030;7.110;2023-06-04T08:48:35;101506.28;;;22.09;32.44
41654;BME280;68687;52.030;7.110;2023-06-04T08:51:02;101504.16;;;22.23;33.13
41654;BME280;68687;52.030;7.110;2023-06-04T08:53:31;101506.97;;;22.51;32.25
41654;BME280;68687;52.030;7.110;2023-06-04T08:55:56;101498.59;;;22.98;30.82
41654;BME280;68687;52.030;7.110;2023-06-04T08:58:23;101508.25;;;23.46;30.13
41654;BME280;68687;52.030;7.110;2023-06-04T09:00:48;101502.22;;;23.16;31.20
41654;BME280;68687;52.030;7.110;2023-06-04T09:03:15;101504.44;;;23.47;27.75
41654;BME280;68687;52.030;7.110;2023-06-04T09:05:40;101499.69;;;23.42;28.54
41654;BME280;68687;52.030;7.110;2023-06-04T09:08:13;101489.38;;;23.61;27.56
41654;BME280;68687;52.030;7.110;2023-06-04T09:10:39;101504.63;;;23.74;26.97
41654;BME280;68687;52.030;7.110;2023-06-04T09:13:07;101503.44;;;22.68;27.76
41654;BME280;68687;52.030;7.110;2023-06-04T09:15:33;101502.03;;;23.34;27.88
41654;BME280;68687;52.030;7.110;2023-06-04T09:17:58;101498.00;;;23.08;28.24
41654;BME280;68687;52.030;7.110;2023-06-04T09:20:24;101512.22;;;23.38;27.88
41654;BME280;68687;52.030;7.110;2023-06-04T09:22:50;101505.38;;;23.24;26.54
41654;BME280;68687;52.030;7.110;2023-06-04T09:25:23;101499.63;;;23.37;27.35
41654;BME280;68687;52.030;7.110;2023-06-04T09:27:50;101508.66;;;23.38;25.86
41654;BME280;68687;52.030;7.110;2023-06-04T09:30:16;101509.41;;;24.17;26.45
41654;BME280;68687;52.030;7.110;2023-06-04T09:32:41;101504.88;;;23.10;26.51
41654;BME280;68687;52.030;7.110;2023-06-04T09:37:37;101492.44;;;23.65;25.52
41654;BME280;68687;52.030;7.110;2023-06-04T09:40:02;101503.59;;;23.30;26.83
41654;BME280;68687;52.030;7.110;2023-06-04T09:42:30;101505.03;;;23.83;25.71
41654;BME280;68687;52.030;7.110;2023-06-04T09:44:55;101504.63;;;23.91;25.78
41654;BME280;68687;52.030;7.110;2023-06-04T09:47:20;101496.22;;;23.97;26.34
41654;BME280;68687;52.030;7.110;2023-06-04T09:49:49;101498.16;;;23.63;26.18
41654;BME280;68687;52.030;7.110;2023-06-04T09:52:16;101497.91;;;23.20;26.04
41654;BME280;68687;52.030;7.110;2023-06-04T09:54:42;101504.88;;;23.72;25.88
41654;BME280;68687;52.030;7.110;2023-06-04T09:57:15;101497.78;;;23.43;26.53
41654;BME280;68687;52.030;7.110;2023-06-04T09:59:44;101504.13;;;23.77;26.87
41654;BME280;68687;52.030;7.110;2023-06-04T10:02:11;101498.66;;;23.94;25.86
41654;BME280;68687;52.030;7.110;2023-06-04T10:04:38;101495.25;;;24.25;25.29
41654;BME280;68687;52.030;7.110;2023-06-04T10:07:05;101495.75;;;24.22;26.63
41654;BME280;68687;52.030;7.110;2023-06-04T10:09:32;101497.50;;;24.67;26.27
41654;BME280;68687;52.030;7.110;2023-06-04T10:11:59;101501.22;;;24.61;24.13
41654;BME280;68687;52.030;7.110;2023-06-04T10:14:39;101489.44;;;24.22;24.48
41654;BME280;68687;52.030;7.110;2023-06-04T10:17:07;101497.16;;;24.42;25.22
41654;BME280;68687;52.030;7.110;2023-06-04T10:19:34;101491.75;;;23.74;24.35
41654;BME280;68687;52.030;7.110;2023-06-04T10:22:00;101488.88;;;24.20;24.49
41654;BME280;68687;52.030;7.110;2023-06-04T10:24:26;101487.53;;;23.84;24.72
41654;BME280;68687;52.030;7.110;2023-06-04T10:26:54;101489.84;;;23.92;24.33
41654;BME280;68687;52.030;7.110;2023-06-04T10:29:21;101489.38;;;24.55;24.66
41654;BME280;68687;52.030;7.110;2023-06-04T10:31:48;101490.75;;;24.80;25.03
41654;BME280;68687;52.030;7.110;2023-06-04T10:34:18;101488.81;;;23.98;24.67
41654;BME280;68687;52.030;7.110;2023-06-04T10:36:44;101492.41;;;23.82;23.87
41654;BME280;68687;52.030;7.110;2023-06-04T10:39:10;101490.16;;;23.45;24.70
41654;BME280;68687;52.030;7.110;2023-06-04T10:41:36;101491.75;;;24.47;23.27
41654;BME280;68687;52.030;7.110;2023-06-04T10:44:02;101491.09;;;24.23;24.49
41654;BME280;68687;52.030;7.110;2023-06-04T10:46:40;101490.16;;;24.12;23.31
41654;BME280;68687;52.030;7.110;2023-06-04T10:49:09;101485.41;;;24.46;24.37
41654;BME280;68687;52.030;7.110;2023-06-04T10:51:36;101486.97;;;23.53;24.20
41654;BME280;68687;52.030;7.110;2023-06-04T10:54:03;101484.75;;;24.00;25.36
41654;BME280;68687;52.030;7.110;2023-06-04T10:56:32;101486.81;;;24.71;25.30
41654;BME280;68687;52.030;7.110;2023-06-04T10:58:59;101489.19;;;24.23;24.36
41654;BME280;68687;52.030;7.110;2023-06-04T11:01:28;101483.34;;;24.37;23.72
41654;BME280;68687;52.030;7.110;2023-06-04T11:03:54;101487.03;;;24.91;23.65
41654;BME280;68687;52.030;7.110;2023-06-04T11:06:21;101489.72;;;24.64;24.20
41654;BME280;68687;52.030;7.110;2023-06-04T11:08:47;101494.75;;;24.45;24.93
41654;BME280;68687;52.030;7.110;2023-06-04T11:11:14;101483.56;;;23.58;24.32
41654;BME280;68687;52.030;7.110;2023-06-04T11:13:40;101487.97;;;24.14;24.67
41654;BME280;68687;52.030;7.110;2023-06-04T11:16:16;101486.38;;;24.57;23.61
41654;BME280;68687;52.030;7.110;2023-06-04T11:18:42;101472.78;;;24.45;23.03
41654;BME280;68687;52.030;7.110;2023-06-04T11:21:07;101488.09;;;24.41;24.32
41654;BME280;68687;52.030;7.110;2023-06-04T11:23:33;101478.56;;;25.19;23.39
41654;BME280;68687;52.030;7.110;2023-06-04T11:25:59;101474.19;;;24.70;23.57
41654;BME280;68687;52.030;7.110;2023-06-04T11:28:25;101476.59;;;25.15;23.57
41654;BME280;68687;52.030;7.110;2023-06-04T11:31:00;101472.38;;;25.34;22.86
41654;BME280;68687;52.030;7.110;2023-06-04T11:33:40;101478.31;;;24.72;23.92
41654;BME280;68687;52.030;7.110;2023-06-04T11:36:06;101479.00;;;24.02;23.11
41654;BME280;68687;52.030;7.110;2023-06-04T11:38:31;101474.69;;;24.06;24.29
41654;BME280;68687;52.030;7.110;2023-06-04T11:40:59;101477.44;;;24.45;23.84
41654;BME280;68687;52.030;7.110;2023-06-04T11:43:27;101471.34;;;24.64;22.82
41654;BME280;68687;52.030;7.110;2023-06-04T11:45:53;101465.19;;;25.28;23.54
41654;BME280;68687;52.030;7.110;2023-06-04T11:48:19;101468.88;;;24.63;23.62
41654;BME280;68687;52.030;7.110;2023-06-04T11:50:45;101462.09;;;23.88;24.25
41654;BME280;68687;52.030;7.110;2023-06-04T11:53:11;101464.72;;;24.60;25.23
41654;BME280;68687;52.030;7.110;2023-06-04T11:55:38;101455.09;;;24.36;23.38
41654;BME280;68687;52.030;7.110;2023-06-04T11:58:03;101461.41;;;23.98;25.98
41654;BME280;68687;52.030;7.110;2023-06-04T12:00:29;101463.66;;;23.51;25.66
41654;BME280;68687;52.030;7.110;2023-06-04T12:02:55;101461.47;;;23.19;25.22
41654;BME280;68687;52.030;7.110;2023-06-04T12:05:23;101465.47;;;23.11;25.14
41654;BME280;68687;52.030;7.110;2023-06-04T12:07:51;101459.25;;;23.50;25.73
41654;BME280;68687;52.030;7.110;2023-06-04T12:10:18;101467.38;;;23.28;25.98
41654;BME280;68687;52.030;7.110;2023-06-04T12:12:43;101461.00;;;22.94;26.28
41654;BME280;68687;52.030;7.110;2023-06-04T12:15:09;101460.19;;;22.53;26.36
41654;BME280;68687;52.030;7.110;2023-06-04T12:17:49;101452.81;;;22.54;27.00
41654;BME280;68687;52.030;7.110;2023-06-04T12:20:14;101440.13;;;22.76;27.08
41654;BME280;68687;52.030;7.110;2023-06-04T12:22:46;101454.38;;;22.49;27.31
41654;BME280;68687;52.030;7.110;2023-06-04T12:25:23;101451.06;;;22.47;26.66
41654;BME280;68687;52.030;7.110;2023-06-04T12:27:49;101456.31;;;22.37;27.33
41654;BME280;68687;52.030;7.110;2023-06-04T12:30:15;101452.00;;;22.41;27.96
41654;BME280;68687;52.030;7.110;2023-06-04T12:32:41;101449.84;;;22.43;27.60
41654;BME280;68687;52.030;7.110;2023-06-04T12:35:07;101454.69;;;22.25;28.29
41654;BME280;68687;52.030;7.110;2023-06-04T12:37:33;101442.09;;;22.24;27.46
41654;BME280;68687;52.030;7.110;2023-06-04T12:39:58;101440.72;;;22.78;27.28
41654;BME280;68687;52.030;7.110;2023-06-04T12:42:23;101445.09;;;22.50;27.16
41654;BME280;68687;52.030;7.110;2023-06-04T12:44:49;101436.13;;;22.27;27.70
41654;BME280;68687;52.030;7.110;2023-06-04T12:47:14;101445.41;;;22.14;28.01
41654;BME280;68687;52.030;7.110;2023-06-04T12:49:41;101435.22;;;22.49;29.35
41654;BME280;68687;52.030;7.110;2023-06-04T12:52:07;101446.06;;;22.44;27.39
41654;BME280;68687;52.030;7.110;2023-06-04T12:54:32;101430.41;;;22.28;28.09